sensor_id;sensor_type;location;lat;lon;timestamp;temperature;humidity
45313;SHT31;68267;51.540;5.854;2023-09-19T00:08:25;15.1;82.9
45313;SHT31;68267;51.540;5.854;2023-09-19T00:21:45;15.1;82.8
45313;SHT31;68267;51.540;5.854;2023-09-19T00:35:05;15.0;83.2
45313;SHT31;68267;51.540;5.854;2023-09-19T00:48:24;14.9;83.3
45313;SHT31;68267;51.540;5.854;2023-09-19T01:01:44;14.9;82.7
45313;SHT31;68267;51.540;5.854;2023-09-19T01:15:04;14.9;81.2
45313;SHT31;68267;51.540;5.854;2023-09-19T01:28:23;14.8;80.6
45313;SHT31;68267;51.540;5.854;2023-09-19T01:41:43;14.7;79.8
45313;SHT31;68267;51.540;5.854;2023-09-19T01:55:03;14.6;79.6
45313;SHT31;68267;51.540;5.854;2023-09-19T02:08:22;14.5;79.4
45313;SHT31;68267;51.540;5.854;2023-09-19T02:21:42;14.4;78.9
45313;SHT31;68267;51.540;5.854;2023-09-19T02:35:02;14.4;78.5
45313;SHT31;68267;51.540;5.854;2023-09-19T02:48:22;14.3;77.8
45313;SHT31;68267;51.540;5.854;2023-09-19T03:01:41;14.1;77.2
45313;SHT31;68267;51.540;5.854;2023-09-19T03:15:01;14.1;76.8
45313;SHT31;68267;51.540;5.854;2023-09-19T03:28:21;14.0;77.1
45313;SHT31;68267;51.540;5.854;2023-09-19T03:41:43;13.9;77.3
45313;SHT31;68267;51.540;5.854;2023-09-19T03:55:03;13.9;77.4
45313;SHT31;68267;51.540;5.854;2023-09-19T04:08:22;13.9;77.6
45313;SHT31;68267;51.540;5.854;2023-09-19T04:21:42;13.9;78.2
45313;SHT31;68267;51.540;5.854;2023-09-19T04:35:02;13.8;79.3
45313;SHT31;68267;51.540;5.854;2023-09-19T04:48:24;13.8;80.1
45313;SHT31;68267;51.540;5.854;2023-09-19T05:01:44;13.7;81.0
45313;SHT31;68267;51.540;5.854;2023-09-19T05:15:06;13.9;80.8
45313;SHT31;68267;51.540;5.854;2023-09-19T05:28:26;14.0;80.4
45313;SHT31;68267;51.540;5.854;2023-09-19T05:41:45;14.1;80.3
45313;SHT31;68267;51.540;5.854;2023-09-19T05:55:07;14.2;79.8
45313;SHT31;68267;51.540;5.854;2023-09-19T06:08:27;14.3;80.2
45313;SHT31;68267;51.540;5.854;2023-09-19T06:21:47;14.3;80.4
45313;SHT31;68267;51.540;5.854;2023-09-19T06:35:07;14.5;80.6
45313;SHT31;68267;51.540;5.854;2023-09-19T06:48:26;14.7;80.7
45313;SHT31;68267;51.540;5.854;2023-09-19T07:01:48;14.7;81.3
45313;SHT31;68267;51.540;5.854;2023-09-19T07:15:08;14.8;81.2
45313;SHT31;68267;51.540;5.854;2023-09-19T07:28:28;14.9;81.0
45313;SHT31;68267;51.540;5.854;2023-09-19T07:41:48;15.1;80.9
45313;SHT31;68267;51.540;5.854;2023-09-19T07:55:07;15.4;80.6
45313;SHT31;68267;51.540;5.854;2023-09-19T08:08:29;15.7;79.3
45313;SHT31;68267;51.540;5.854;2023-09-19T08:21:49;16.1;78.3
45313;SHT31;68267;51.540;5.854;2023-09-19T08:35:09;16.3;77.1
45313;SHT31;68267;51.540;5.854;2023-09-19T08:48:31;16.7;76.7
45313;SHT31;68267;51.540;5.854;2023-09-19T09:01:53;17.1;74.1
45313;SHT31;68267;51.540;5.854;2023-09-19T09:15:13;16.9;75.1
45313;SHT31;68267;51.540;5.854;2023-09-19T09:28:33;17.4;73.2
45313;SHT31;68267;51.540;5.854;2023-09-19T09:41:52;17.7;74.6
45313;SHT31;68267;51.540;5.854;2023-09-19T09:55:12;18.0;69.9
45313;SHT31;68267;51.540;5.854;2023-09-19T10:08:34;18.4;68.8
45313;SHT31;68267;51.540;5.854;2023-09-19T10:21:54;18.3;69.9
45313;SHT31;68267;51.540;5.854;2023-09-19T10:35:16;18.6;68.8
45313;SHT31;68267;51.540;5.854;2023-09-19T10:48:36;18.7;67.1
45313;SHT31;68267;51.540;5.854;2023-09-19T11:01:55;18.6;65.1
45313;SHT31;68267;51.540;5.854;2023-09-19T11:15:18;18.6;65.4
45313;SHT31;68267;51.540;5.854;2023-09-19T11:28:37;19.3;63.4
45313;SHT31;68267;51.540;5.854;2023-09-19T11:41:57;19.4;62.9
45313;SHT31;68267;51.540;5.854;2023-09-19T11:55:17;19.8;61.4
45313;SHT31;68267;51.540;5.854;2023-09-19T12:08:36;20.0;60.6
45313;SHT31;68267;51.540;5.854;2023-09-19T12:21:59;19.6;61.9
45313;SHT31;68267;51.540;5.854;2023-09-19T12:35:18;20.2;60.8
45313;SHT31;68267;51.540;5.854;2023-09-19T12:48:38;20.1;62.7
45313;SHT31;68267;51.540;5.854;2023-09-19T13:01:58;19.7;62.5
45313;SHT31;68267;51.540;5.854;2023-09-19T13:15:17;19.6;63.1
45313;SHT31;68267;51.540;5.854;2023-09-19T13:28:37;20.0;61.4
45313;SHT31;68267;51.540;5.854;2023-09-19T13:41:57;19.7;63.4
45313;SHT31;68267;51.540;5.854;2023-09-19T13:55:17;19.5;63.4
45313;SHT31;68267;51.540;5.854;2023-09-19T14:08:36;19.4;64.4
45313;SHT31;68267;51.540;5.854;2023-09-19T14:21:56;19.2;64.3
45313;SHT31;68267;51.540;5.854;2023-09-19T14:35:16;19.2;64.1
45313;SHT31;68267;51.540;5.854;2023-09-19T14:48:35;19.8;63.7
45313;SHT31;68267;51.540;5.854;2023-09-19T15:01:55;19.7;64.8
45313;SHT31;68267;51.540;5.854;2023-09-19T15:15:15;19.5;66.3
45313;SHT31;68267;51.540;5.854;2023-09-19T15:28:34;19.4;66.7
45313;SHT31;68267;51.540;5.854;2023-09-19T15:41:54;19.2;66.7
45313;SHT31;68267;51.540;5.854;2023-09-19T15:55:14;19.3;67.0
45313;SHT31;68267;51.540;5.854;2023-09-19T16:08:34;19.2;66.5
45313;SHT31;68267;51.540;5.854;2023-09-19T16:21:53;19.1;66.9
45313;SHT31;68267;51.540;5.854;2023-09-19T16:35:13;19.0;66.9
45313;SHT31;68267;51.540;5.854;2023-09-19T16:48:33;18.9;68.1
45313;SHT31;68267;51.540;5.854;2023-09-19T17:01:52;18.8;68.8
45313;SHT31;68267;51.540;5.854;2023-09-19T17:15:12;18.8;68.1
45313;SHT31;68267;51.540;5.854;2023-09-19T17:28:32;18.8;68.2
45313;SHT31;68267;51.540;5.854;2023-09-19T17:41:52;18.6;69.3
45313;SHT31;68267;51.540;5.854;2023-09-19T17:55:11;18.7;69.4
45313;SHT31;68267;51.540;5.854;2023-09-19T18:08:31;18.6;69.5
45313;SHT31;68267;51.540;5.854;2023-09-19T18:21:51;18.5;69.4
45313;SHT31;68267;51.540;5.854;2023-09-19T18:35:10;18.4;70.1
45313;SHT31;68267;51.540;5.854;2023-09-19T18:48:30;18.3;70.6
45313;SHT31;68267;51.540;5.854;2023-09-19T19:01:50;18.4;70.5
45313;SHT31;68267;51.540;5.854;2023-09-19T19:15:10;18.4;70.7
45313;SHT31;68267;51.540;5.854;2023-09-19T19:28:32;18.2;70.8
45313;SHT31;68267;51.540;5.854;2023-09-19T19:41:51;18.3;71.0
45313;SHT31;68267;51.540;5.854;2023-09-19T19:55:11;18.2;71.0
45313;SHT31;68267;51.540;5.854;2023-09-19T20:08:31;18.2;70.9
45313;SHT31;68267;51.540;5.854;2023-09-19T20:21:51;18.1;71.0
45313;SHT31;68267;51.540;5.854;2023-09-19T20:35:13;18.2;71.0
45313;SHT31;68267;51.540;5.854;2023-09-19T20:48:32;18.2;70.3
45313;SHT31;68267;51.540;5.854;2023-09-19T21:01:52;18.3;70.1
45313;SHT31;68267;51.540;5.854;2023-09-19T21:15:12;18.3;70.6
45313;SHT31;68267;51.540;5.854;2023-09-19T21:28:32;18.3;70.6
45313;SHT31;68267;51.540;5.854;2023-09-19T21:41:54;18.3;70.7
45313;SHT31;68267;51.540;5.854;2023-09-19T21:55:14;18.3;70.9
45313;SHT31;68267;51.540;5.854;2023-09-19T22:08:33;18.3;71.0
45313;SHT31;68267;51.540;5.854;2023-09-19T22:21:55;18.2;71.1
45313;SHT31;68267;51.540;5.854;2023-09-19T22:35:17;18.2;71.5
45313;SHT31;68267;51.540;5.854;2023-09-19T22:48:37;18.0;72.2
45313;SHT31;68267;51.540;5.854;2023-09-19T23:01:57;17.8;72.9
45313;SHT31;68267;51.540;5.854;2023-09-19T23:15:17;17.7;73.8
45313;SHT31;68267;51.540;5.854;2023-09-19T23:28:36;17.6;74.3
45313;SHT31;68267;51.540;5.854;2023-09-19T23:41:59;17.5;74.9
45313;SHT31;68267;51.540;5.854;2023-09-19T23:55:18;17.5;74.9
